<?xml version="1.0" encoding="UTF-8" standalone="no" ?>
<gpx xmlns="http://www.topografix.com/GPX/1/1" xmlns:xsi="http://www.w3.org/2001/XMLSchema-instance" xsi:schemaLocation="http://www.topografix.com/GPX/1/1 http://www.topografix.com/GPX/1/1/gpx.xsd" version="1.1" creator="VisuGPX - https://www.visugpx.com">
  <metadata>
    <name>Le Pont de Fromentières - L'Aubépin</name>
    <desc><![CDATA[Circuit au départ du Pont de Fromentières, par les Jallats, l'Aubépin, Prégrand]]></desc>
  </metadata>
  <trk>
    <name><![CDATA[l'Aubépin]]></name>
    <trkseg>
      <trkpt lat="44.88054" lon="4.36493">
        <ele>529.296</ele>
        <time>2017-08-17T13:13:59Z</time>
      </trkpt>
      <trkpt lat="44.88003" lon="4.36471">
        <ele>531.909</ele>
        <time>2017-08-17T13:16:16Z</time>
      </trkpt>
      <trkpt lat="44.87955" lon="4.36457">
        <ele>535.574</ele>
        <time>2017-08-17T13:17:11Z</time>
      </trkpt>
      <trkpt lat="44.87924" lon="4.3642">
        <ele>536.52</ele>
        <time>2017-08-17T13:17:47Z</time>
      </trkpt>
      <trkpt lat="44.87822" lon="4.36444">
        <ele>563.677</ele>
        <time>2017-08-17T13:21:48Z</time>
      </trkpt>
      <trkpt lat="44.87819" lon="4.36445">
        <ele>565.995</ele>
        <time>2017-08-17T13:21:55Z</time>
      </trkpt>
      <trkpt lat="44.87811" lon="4.36445">
        <ele>565.964</ele>
        <time>2017-08-17T13:22:04Z</time>
      </trkpt>
      <trkpt lat="44.87806" lon="4.3644">
        <ele>567.646</ele>
        <time>2017-08-17T13:22:13Z</time>
      </trkpt>
      <trkpt lat="44.87799" lon="4.36441">
        <ele>569.154</ele>
        <time>2017-08-17T13:22:23Z</time>
      </trkpt>
      <trkpt lat="44.87793" lon="4.36436">
        <ele>570.715</ele>
        <time>2017-08-17T13:22:35Z</time>
      </trkpt>
      <trkpt lat="44.87791" lon="4.36439">
        <ele>570.816</ele>
        <time>2017-08-17T13:22:44Z</time>
      </trkpt>
      <trkpt lat="44.87789" lon="4.36438">
        <ele>571.191</ele>
        <time>2017-08-17T13:23:00Z</time>
      </trkpt>
      <trkpt lat="44.87787" lon="4.36438">
        <ele>571.214</ele>
        <time>2017-08-17T13:23:02Z</time>
      </trkpt>
      <trkpt lat="44.8778" lon="4.36437">
        <ele>571.887</ele>
        <time>2017-08-17T13:23:10Z</time>
      </trkpt>
      <trkpt lat="44.87775" lon="4.36439">
        <ele>572.297</ele>
        <time>2017-08-17T13:23:19Z</time>
      </trkpt>
      <trkpt lat="44.87769" lon="4.36445">
        <ele>574.789</ele>
        <time>2017-08-17T13:23:56Z</time>
      </trkpt>
      <trkpt lat="44.87764" lon="4.36448">
        <ele>575.968</ele>
        <time>2017-08-17T13:24:05Z</time>
      </trkpt>
      <trkpt lat="44.87762" lon="4.36457">
        <ele>577.168</ele>
        <time>2017-08-17T13:24:12Z</time>
      </trkpt>
      <trkpt lat="44.87759" lon="4.36468">
        <ele>577.797</ele>
        <time>2017-08-17T13:24:21Z</time>
      </trkpt>
      <trkpt lat="44.87755" lon="4.36474">
        <ele>579.601</ele>
        <time>2017-08-17T13:24:31Z</time>
      </trkpt>
      <trkpt lat="44.87752" lon="4.36477">
        <ele>580.561</ele>
        <time>2017-08-17T13:24:45Z</time>
      </trkpt>
      <trkpt lat="44.8775" lon="4.36482">
        <ele>581.607</ele>
        <time>2017-08-17T13:24:51Z</time>
      </trkpt>
      <trkpt lat="44.87749" lon="4.36486">
        <ele>582.265</ele>
        <time>2017-08-17T13:24:59Z</time>
      </trkpt>
      <trkpt lat="44.87742" lon="4.36482">
        <ele>583.891</ele>
        <time>2017-08-17T13:25:10Z</time>
      </trkpt>
      <trkpt lat="44.87744" lon="4.36479">
        <ele>585.365</ele>
        <time>2017-08-17T13:25:19Z</time>
      </trkpt>
      <trkpt lat="44.87743" lon="4.36467">
        <ele>587.496</ele>
        <time>2017-08-17T13:25:31Z</time>
      </trkpt>
      <trkpt lat="44.87736" lon="4.36467">
        <ele>588.923</ele>
        <time>2017-08-17T13:25:41Z</time>
      </trkpt>
      <trkpt lat="44.87729" lon="4.36474">
        <ele>590.254</ele>
        <time>2017-08-17T13:25:52Z</time>
      </trkpt>
      <trkpt lat="44.87724" lon="4.36474">
        <ele>591.883</ele>
        <time>2017-08-17T13:26:00Z</time>
      </trkpt>
      <trkpt lat="44.87718" lon="4.36476">
        <ele>593.011</ele>
        <time>2017-08-17T13:26:07Z</time>
      </trkpt>
      <trkpt lat="44.8771" lon="4.36475">
        <ele>594.968</ele>
        <time>2017-08-17T13:26:18Z</time>
      </trkpt>
      <trkpt lat="44.87704" lon="4.36477">
        <ele>595.835</ele>
        <time>2017-08-17T13:26:26Z</time>
      </trkpt>
      <trkpt lat="44.87698" lon="4.36476">
        <ele>597.282</ele>
        <time>2017-08-17T13:26:35Z</time>
      </trkpt>
      <trkpt lat="44.87693" lon="4.36476">
        <ele>598.726</ele>
        <time>2017-08-17T13:27:03Z</time>
      </trkpt>
      <trkpt lat="44.87686" lon="4.36478">
        <ele>600.232</ele>
        <time>2017-08-17T13:27:14Z</time>
      </trkpt>
      <trkpt lat="44.87683" lon="4.36479">
        <ele>600.854</ele>
        <time>2017-08-17T13:27:20Z</time>
      </trkpt>
      <trkpt lat="44.87678" lon="4.3648">
        <ele>602.623</ele>
        <time>2017-08-17T13:27:28Z</time>
      </trkpt>
      <trkpt lat="44.87671" lon="4.36479">
        <ele>603.546</ele>
        <time>2017-08-17T13:27:35Z</time>
      </trkpt>
      <trkpt lat="44.87666" lon="4.36478">
        <ele>604.474</ele>
        <time>2017-08-17T13:27:42Z</time>
      </trkpt>
      <trkpt lat="44.87662" lon="4.36479">
        <ele>605.044</ele>
        <time>2017-08-17T13:27:48Z</time>
      </trkpt>
      <trkpt lat="44.87658" lon="4.36478">
        <ele>606.018</ele>
        <time>2017-08-17T13:27:54Z</time>
      </trkpt>
      <trkpt lat="44.87653" lon="4.36476">
        <ele>606.862</ele>
        <time>2017-08-17T13:27:59Z</time>
      </trkpt>
      <trkpt lat="44.87648" lon="4.36474">
        <ele>607.68</ele>
        <time>2017-08-17T13:28:05Z</time>
      </trkpt>
      <trkpt lat="44.87645" lon="4.36468">
        <ele>608.163</ele>
        <time>2017-08-17T13:28:50Z</time>
      </trkpt>
      <trkpt lat="44.87642" lon="4.36465">
        <ele>609.185</ele>
        <time>2017-08-17T13:29:07Z</time>
      </trkpt>
      <trkpt lat="44.87638" lon="4.36456">
        <ele>610.88</ele>
        <time>2017-08-17T13:29:18Z</time>
      </trkpt>
      <trkpt lat="44.87633" lon="4.36455">
        <ele>611.249</ele>
        <time>2017-08-17T13:29:36Z</time>
      </trkpt>
      <trkpt lat="44.87631" lon="4.36453">
        <ele>610.72</ele>
        <time>2017-08-17T13:29:39Z</time>
      </trkpt>
      <trkpt lat="44.87627" lon="4.36447">
        <ele>611.992</ele>
        <time>2017-08-17T13:29:46Z</time>
      </trkpt>
      <trkpt lat="44.87624" lon="4.36446">
        <ele>612.209</ele>
        <time>2017-08-17T13:29:55Z</time>
      </trkpt>
      <trkpt lat="44.87624" lon="4.36443">
        <ele>612.141</ele>
        <time>2017-08-17T13:30:22Z</time>
      </trkpt>
      <trkpt lat="44.87625" lon="4.36439">
        <ele>613.058</ele>
        <time>2017-08-17T13:30:47Z</time>
      </trkpt>
      <trkpt lat="44.87625" lon="4.36436">
        <ele>613.482</ele>
        <time>2017-08-17T13:30:50Z</time>
      </trkpt>
      <trkpt lat="44.87622" lon="4.36434">
        <ele>614.286</ele>
        <time>2017-08-17T13:30:56Z</time>
      </trkpt>
      <trkpt lat="44.87619" lon="4.36426">
        <ele>615.46</ele>
        <time>2017-08-17T13:31:04Z</time>
      </trkpt>
      <trkpt lat="44.87613" lon="4.36414">
        <ele>617.771</ele>
        <time>2017-08-17T13:31:15Z</time>
      </trkpt>
      <trkpt lat="44.87609" lon="4.36407">
        <ele>618.862</ele>
        <time>2017-08-17T13:31:24Z</time>
      </trkpt>
      <trkpt lat="44.87603" lon="4.36399">
        <ele>620.709</ele>
        <time>2017-08-17T13:31:35Z</time>
      </trkpt>
      <trkpt lat="44.87599" lon="4.36392">
        <ele>621.948</ele>
        <time>2017-08-17T13:31:44Z</time>
      </trkpt>
      <trkpt lat="44.87595" lon="4.36387">
        <ele>623.991</ele>
        <time>2017-08-17T13:31:53Z</time>
      </trkpt>
      <trkpt lat="44.87592" lon="4.36379">
        <ele>625.142</ele>
        <time>2017-08-17T13:32:03Z</time>
      </trkpt>
      <trkpt lat="44.87588" lon="4.36378">
        <ele>626.716</ele>
        <time>2017-08-17T13:32:12Z</time>
      </trkpt>
      <trkpt lat="44.87584" lon="4.36372">
        <ele>628.924</ele>
        <time>2017-08-17T13:32:22Z</time>
      </trkpt>
      <trkpt lat="44.8758" lon="4.36365">
        <ele>629.506</ele>
        <time>2017-08-17T13:32:30Z</time>
      </trkpt>
      <trkpt lat="44.87571" lon="4.36359">
        <ele>631.127</ele>
        <time>2017-08-17T13:32:42Z</time>
      </trkpt>
      <trkpt lat="44.87567" lon="4.36358">
        <ele>631.444</ele>
        <time>2017-08-17T13:32:51Z</time>
      </trkpt>
      <trkpt lat="44.87561" lon="4.36367">
        <ele>632.394</ele>
        <time>2017-08-17T13:33:00Z</time>
      </trkpt>
      <trkpt lat="44.87562" lon="4.36377">
        <ele>634.252</ele>
        <time>2017-08-17T13:33:09Z</time>
      </trkpt>
      <trkpt lat="44.87558" lon="4.36382">
        <ele>635.701</ele>
        <time>2017-08-17T13:33:44Z</time>
      </trkpt>
      <trkpt lat="44.87551" lon="4.36387">
        <ele>637.546</ele>
        <time>2017-08-17T13:33:53Z</time>
      </trkpt>
      <trkpt lat="44.87545" lon="4.36391">
        <ele>638.562</ele>
        <time>2017-08-17T13:34:02Z</time>
      </trkpt>
      <trkpt lat="44.8754" lon="4.36396">
        <ele>639.916</ele>
        <time>2017-08-17T13:34:10Z</time>
      </trkpt>
      <trkpt lat="44.87532" lon="4.36397">
        <ele>640.858</ele>
        <time>2017-08-17T13:34:17Z</time>
      </trkpt>
      <trkpt lat="44.87528" lon="4.36395">
        <ele>641.775</ele>
        <time>2017-08-17T13:34:23Z</time>
      </trkpt>
      <trkpt lat="44.87525" lon="4.36395">
        <ele>642.883</ele>
        <time>2017-08-17T13:34:33Z</time>
      </trkpt>
      <trkpt lat="44.87521" lon="4.36393">
        <ele>644.531</ele>
        <time>2017-08-17T13:34:58Z</time>
      </trkpt>
      <trkpt lat="44.87513" lon="4.36388">
        <ele>645.909</ele>
        <time>2017-08-17T13:35:08Z</time>
      </trkpt>
      <trkpt lat="44.87509" lon="4.36381">
        <ele>648.106</ele>
        <time>2017-08-17T13:35:17Z</time>
      </trkpt>
      <trkpt lat="44.87507" lon="4.36376">
        <ele>649.264</ele>
        <time>2017-08-17T13:35:23Z</time>
      </trkpt>
      <trkpt lat="44.87504" lon="4.36374">
        <ele>649.012</ele>
        <time>2017-08-17T13:35:25Z</time>
      </trkpt>
      <trkpt lat="44.87499" lon="4.3637">
        <ele>650.122</ele>
        <time>2017-08-17T13:35:31Z</time>
      </trkpt>
      <trkpt lat="44.87494" lon="4.36365">
        <ele>651.812</ele>
        <time>2017-08-17T13:35:39Z</time>
      </trkpt>
      <trkpt lat="44.8749" lon="4.36359">
        <ele>652.954</ele>
        <time>2017-08-17T13:35:48Z</time>
      </trkpt>
      <trkpt lat="44.87483" lon="4.36356">
        <ele>654.505</ele>
        <time>2017-08-17T13:35:59Z</time>
      </trkpt>
      <trkpt lat="44.8748" lon="4.36344">
        <ele>656.444</ele>
        <time>2017-08-17T13:36:09Z</time>
      </trkpt>
      <trkpt lat="44.87476" lon="4.36339">
        <ele>657.013</ele>
        <time>2017-08-17T13:36:21Z</time>
      </trkpt>
      <trkpt lat="44.87476" lon="4.36331">
        <ele>657.643</ele>
        <time>2017-08-17T13:36:30Z</time>
      </trkpt>
      <trkpt lat="44.87479" lon="4.36332">
        <ele>659.219</ele>
        <time>2017-08-17T13:37:18Z</time>
      </trkpt>
      <trkpt lat="44.87473" lon="4.3633">
        <ele>659.332</ele>
        <time>2017-08-17T13:37:27Z</time>
      </trkpt>
      <trkpt lat="44.87466" lon="4.36324">
        <ele>660.531</ele>
        <time>2017-08-17T13:37:36Z</time>
      </trkpt>
      <trkpt lat="44.87458" lon="4.36314">
        <ele>662.066</ele>
        <time>2017-08-17T13:37:55Z</time>
      </trkpt>
      <trkpt lat="44.87453" lon="4.36307">
        <ele>663.857</ele>
        <time>2017-08-17T13:38:08Z</time>
      </trkpt>
      <trkpt lat="44.8745" lon="4.36309">
        <ele>664.061</ele>
        <time>2017-08-17T13:38:21Z</time>
      </trkpt>
      <trkpt lat="44.87451" lon="4.363">
        <ele>664.28</ele>
        <time>2017-08-17T13:38:30Z</time>
      </trkpt>
      <trkpt lat="44.87453" lon="4.36299">
        <ele>663.596</ele>
        <time>2017-08-17T13:38:40Z</time>
      </trkpt>
      <trkpt lat="44.87453" lon="4.36302">
        <ele>665.311</ele>
        <time>2017-08-17T13:38:46Z</time>
      </trkpt>
      <trkpt lat="44.87451" lon="4.36301">
        <ele>664.629</ele>
        <time>2017-08-17T13:39:14Z</time>
      </trkpt>
      <trkpt lat="44.87451" lon="4.36299">
        <ele>666.074</ele>
        <time>2017-08-17T13:39:20Z</time>
      </trkpt>
      <trkpt lat="44.8745" lon="4.36291">
        <ele>667.967</ele>
        <time>2017-08-17T13:39:27Z</time>
      </trkpt>
      <trkpt lat="44.87443" lon="4.36278">
        <ele>668.085</ele>
        <time>2017-08-17T13:39:37Z</time>
      </trkpt>
      <trkpt lat="44.87441" lon="4.36263">
        <ele>669.752</ele>
        <time>2017-08-17T13:39:50Z</time>
      </trkpt>
      <trkpt lat="44.87438" lon="4.36252">
        <ele>670.184</ele>
        <time>2017-08-17T13:39:58Z</time>
      </trkpt>
      <trkpt lat="44.87433" lon="4.36248">
        <ele>671.323</ele>
        <time>2017-08-17T13:40:07Z</time>
      </trkpt>
      <trkpt lat="44.87431" lon="4.36242">
        <ele>672.392</ele>
        <time>2017-08-17T13:40:16Z</time>
      </trkpt>
      <trkpt lat="44.87429" lon="4.36232">
        <ele>673.272</ele>
        <time>2017-08-17T13:40:26Z</time>
      </trkpt>
      <trkpt lat="44.87426" lon="4.36222">
        <ele>674.489</ele>
        <time>2017-08-17T13:40:37Z</time>
      </trkpt>
      <trkpt lat="44.87427" lon="4.36217">
        <ele>675.305</ele>
        <time>2017-08-17T13:40:46Z</time>
      </trkpt>
      <trkpt lat="44.87423" lon="4.3621">
        <ele>676.024</ele>
        <time>2017-08-17T13:40:54Z</time>
      </trkpt>
      <trkpt lat="44.87419" lon="4.36203">
        <ele>676.836</ele>
        <time>2017-08-17T13:41:03Z</time>
      </trkpt>
      <trkpt lat="44.87415" lon="4.36199">
        <ele>677.509</ele>
        <time>2017-08-17T13:41:09Z</time>
      </trkpt>
      <trkpt lat="44.87413" lon="4.36191">
        <ele>678.738</ele>
        <time>2017-08-17T13:41:16Z</time>
      </trkpt>
      <trkpt lat="44.87412" lon="4.36185">
        <ele>678.911</ele>
        <time>2017-08-17T13:41:23Z</time>
      </trkpt>
      <trkpt lat="44.8741" lon="4.36179">
        <ele>679.444</ele>
        <time>2017-08-17T13:41:37Z</time>
      </trkpt>
      <trkpt lat="44.87407" lon="4.36175">
        <ele>679.84</ele>
        <time>2017-08-17T13:42:00Z</time>
      </trkpt>
      <trkpt lat="44.87399" lon="4.36172">
        <ele>680.456</ele>
        <time>2017-08-17T13:42:09Z</time>
      </trkpt>
      <trkpt lat="44.87389" lon="4.36175">
        <ele>681.384</ele>
        <time>2017-08-17T13:42:22Z</time>
      </trkpt>
      <trkpt lat="44.87386" lon="4.36177">
        <ele>682.006</ele>
        <time>2017-08-17T13:42:31Z</time>
      </trkpt>
      <trkpt lat="44.87387" lon="4.36172">
        <ele>682.019</ele>
        <time>2017-08-17T13:42:39Z</time>
      </trkpt>
      <trkpt lat="44.87382" lon="4.36171">
        <ele>682.581</ele>
        <time>2017-08-17T13:43:22Z</time>
      </trkpt>
      <trkpt lat="44.87378" lon="4.36168">
        <ele>684.013</ele>
        <time>2017-08-17T13:43:32Z</time>
      </trkpt>
      <trkpt lat="44.87373" lon="4.3616">
        <ele>685.696</ele>
        <time>2017-08-17T13:43:43Z</time>
      </trkpt>
      <trkpt lat="44.87371" lon="4.36151">
        <ele>687.743</ele>
        <time>2017-08-17T13:43:52Z</time>
      </trkpt>
      <trkpt lat="44.87368" lon="4.36146">
        <ele>687.804</ele>
        <time>2017-08-17T13:43:59Z</time>
      </trkpt>
      <trkpt lat="44.87361" lon="4.3614">
        <ele>689.043</ele>
        <time>2017-08-17T13:44:14Z</time>
      </trkpt>
      <trkpt lat="44.87357" lon="4.36133">
        <ele>688.846</ele>
        <time>2017-08-17T13:44:23Z</time>
      </trkpt>
      <trkpt lat="44.87349" lon="4.36128">
        <ele>689.675</ele>
        <time>2017-08-17T13:44:35Z</time>
      </trkpt>
      <trkpt lat="44.87346" lon="4.36125">
        <ele>690.358</ele>
        <time>2017-08-17T13:44:43Z</time>
      </trkpt>
      <trkpt lat="44.8734" lon="4.3612">
        <ele>689.057</ele>
        <time>2017-08-17T13:44:51Z</time>
      </trkpt>
      <trkpt lat="44.8734" lon="4.36115">
        <ele>688.776</ele>
        <time>2017-08-17T13:44:57Z</time>
      </trkpt>
      <trkpt lat="44.87338" lon="4.36112">
        <ele>689.125</ele>
        <time>2017-08-17T13:45:07Z</time>
      </trkpt>
      <trkpt lat="44.87333" lon="4.36106">
        <ele>687.865</ele>
        <time>2017-08-17T13:45:15Z</time>
      </trkpt>
      <trkpt lat="44.87328" lon="4.361">
        <ele>687.17</ele>
        <time>2017-08-17T13:45:24Z</time>
      </trkpt>
      <trkpt lat="44.87326" lon="4.36098">
        <ele>687.227</ele>
        <time>2017-08-17T13:45:29Z</time>
      </trkpt>
      <trkpt lat="44.87324" lon="4.36095">
        <ele>686.965</ele>
        <time>2017-08-17T13:45:35Z</time>
      </trkpt>
      <trkpt lat="44.8732" lon="4.36091">
        <ele>685.924</ele>
        <time>2017-08-17T13:45:42Z</time>
      </trkpt>
      <trkpt lat="44.87318" lon="4.36088">
        <ele>687.23</ele>
        <time>2017-08-17T13:45:45Z</time>
      </trkpt>
      <trkpt lat="44.87311" lon="4.36079">
        <ele>687.705</ele>
        <time>2017-08-17T13:45:55Z</time>
      </trkpt>
      <trkpt lat="44.87308" lon="4.36075">
        <ele>688.411</ele>
        <time>2017-08-17T13:46:02Z</time>
      </trkpt>
      <trkpt lat="44.87303" lon="4.3607">
        <ele>689.14</ele>
        <time>2017-08-17T13:46:12Z</time>
      </trkpt>
      <trkpt lat="44.87298" lon="4.36068">
        <ele>690.403</ele>
        <time>2017-08-17T13:46:29Z</time>
      </trkpt>
      <trkpt lat="44.87293" lon="4.36061">
        <ele>691.681</ele>
        <time>2017-08-17T13:46:38Z</time>
      </trkpt>
      <trkpt lat="44.87293" lon="4.36067">
        <ele>691.532</ele>
        <time>2017-08-17T13:46:58Z</time>
      </trkpt>
      <trkpt lat="44.87289" lon="4.36064">
        <ele>692.136</ele>
        <time>2017-08-17T13:47:21Z</time>
      </trkpt>
      <trkpt lat="44.87282" lon="4.36065">
        <ele>694.377</ele>
        <time>2017-08-17T13:47:35Z</time>
      </trkpt>
      <trkpt lat="44.87269" lon="4.36061">
        <ele>695.661</ele>
        <time>2017-08-17T13:47:52Z</time>
      </trkpt>
      <trkpt lat="44.87262" lon="4.36059">
        <ele>696.006</ele>
        <time>2017-08-17T13:48:00Z</time>
      </trkpt>
      <trkpt lat="44.8726" lon="4.36061">
        <ele>696.156</ele>
        <time>2017-08-17T13:48:03Z</time>
      </trkpt>
      <trkpt lat="44.87256" lon="4.36067">
        <ele>697.791</ele>
        <time>2017-08-17T13:48:12Z</time>
      </trkpt>
      <trkpt lat="44.87253" lon="4.36071">
        <ele>698.518</ele>
        <time>2017-08-17T13:48:20Z</time>
      </trkpt>
      <trkpt lat="44.8725" lon="4.36065">
        <ele>699.091</ele>
        <time>2017-08-17T13:48:29Z</time>
      </trkpt>
      <trkpt lat="44.87245" lon="4.3607">
        <ele>699.376</ele>
        <time>2017-08-17T13:48:39Z</time>
      </trkpt>
      <trkpt lat="44.87244" lon="4.36073">
        <ele>698.876</ele>
        <time>2017-08-17T13:48:43Z</time>
      </trkpt>
      <trkpt lat="44.87241" lon="4.36078">
        <ele>699.059</ele>
        <time>2017-08-17T13:48:50Z</time>
      </trkpt>
      <trkpt lat="44.87234" lon="4.36084">
        <ele>699.119</ele>
        <time>2017-08-17T13:49:01Z</time>
      </trkpt>
      <trkpt lat="44.87231" lon="4.3609">
        <ele>699.086</ele>
        <time>2017-08-17T13:49:08Z</time>
      </trkpt>
      <trkpt lat="44.87227" lon="4.36096">
        <ele>699.672</ele>
        <time>2017-08-17T13:49:16Z</time>
      </trkpt>
      <trkpt lat="44.87224" lon="4.36099">
        <ele>699.555</ele>
        <time>2017-08-17T13:49:21Z</time>
      </trkpt>
      <trkpt lat="44.87218" lon="4.36106">
        <ele>700.441</ele>
        <time>2017-08-17T13:49:28Z</time>
      </trkpt>
      <trkpt lat="44.87209" lon="4.36111">
        <ele>700.429</ele>
        <time>2017-08-17T13:49:37Z</time>
      </trkpt>
      <trkpt lat="44.87206" lon="4.36111">
        <ele>700.624</ele>
        <time>2017-08-17T13:49:43Z</time>
      </trkpt>
      <trkpt lat="44.87193" lon="4.3611">
        <ele>701.348</ele>
        <time>2017-08-17T13:49:56Z</time>
      </trkpt>
      <trkpt lat="44.87189" lon="4.36105">
        <ele>701.62</ele>
        <time>2017-08-17T13:50:02Z</time>
      </trkpt>
      <trkpt lat="44.87181" lon="4.36096">
        <ele>701.922</ele>
        <time>2017-08-17T13:50:11Z</time>
      </trkpt>
      <trkpt lat="44.87176" lon="4.36094">
        <ele>702.069</ele>
        <time>2017-08-17T13:50:20Z</time>
      </trkpt>
      <trkpt lat="44.8717" lon="4.36094">
        <ele>700.595</ele>
        <time>2017-08-17T13:50:29Z</time>
      </trkpt>
      <trkpt lat="44.87165" lon="4.36084">
        <ele>699.837</ele>
        <time>2017-08-17T13:50:38Z</time>
      </trkpt>
      <trkpt lat="44.87163" lon="4.36077">
        <ele>699.672</ele>
        <time>2017-08-17T13:50:44Z</time>
      </trkpt>
      <trkpt lat="44.87161" lon="4.36076">
        <ele>700.503</ele>
        <time>2017-08-17T13:51:27Z</time>
      </trkpt>
      <trkpt lat="44.87151" lon="4.36071">
        <ele>697.403</ele>
        <time>2017-08-17T13:51:53Z</time>
      </trkpt>
      <trkpt lat="44.87144" lon="4.36063">
        <ele>696.665</ele>
        <time>2017-08-17T13:52:00Z</time>
      </trkpt>
      <trkpt lat="44.87139" lon="4.36051">
        <ele>696.432</ele>
        <time>2017-08-17T13:52:12Z</time>
      </trkpt>
      <trkpt lat="44.87136" lon="4.36048">
        <ele>696.31</ele>
        <time>2017-08-17T13:52:16Z</time>
      </trkpt>
      <trkpt lat="44.87131" lon="4.36044">
        <ele>696.697</ele>
        <time>2017-08-17T13:52:21Z</time>
      </trkpt>
      <trkpt lat="44.87128" lon="4.36041">
        <ele>696.649</ele>
        <time>2017-08-17T13:52:27Z</time>
      </trkpt>
      <trkpt lat="44.8712" lon="4.36036">
        <ele>696.737</ele>
        <time>2017-08-17T13:52:43Z</time>
      </trkpt>
      <trkpt lat="44.87114" lon="4.36041">
        <ele>697.172</ele>
        <time>2017-08-17T13:52:49Z</time>
      </trkpt>
      <trkpt lat="44.87111" lon="4.36048">
        <ele>697.729</ele>
        <time>2017-08-17T13:52:57Z</time>
      </trkpt>
      <trkpt lat="44.87106" lon="4.36049">
        <ele>697.565</ele>
        <time>2017-08-17T13:53:06Z</time>
      </trkpt>
      <trkpt lat="44.87102" lon="4.36053">
        <ele>697.929</ele>
        <time>2017-08-17T13:53:13Z</time>
      </trkpt>
      <trkpt lat="44.87097" lon="4.36055">
        <ele>697.977</ele>
        <time>2017-08-17T13:53:19Z</time>
      </trkpt>
      <trkpt lat="44.87088" lon="4.36053">
        <ele>699.379</ele>
        <time>2017-08-17T13:53:28Z</time>
      </trkpt>
      <trkpt lat="44.87081" lon="4.36053">
        <ele>700.557</ele>
        <time>2017-08-17T13:53:35Z</time>
      </trkpt>
      <trkpt lat="44.87076" lon="4.36051">
        <ele>701.643</ele>
        <time>2017-08-17T13:53:44Z</time>
      </trkpt>
      <trkpt lat="44.87066" lon="4.36052">
        <ele>702.21</ele>
        <time>2017-08-17T13:53:54Z</time>
      </trkpt>
      <trkpt lat="44.87059" lon="4.36051">
        <ele>702.327</ele>
        <time>2017-08-17T13:54:05Z</time>
      </trkpt>
      <trkpt lat="44.87051" lon="4.36046">
        <ele>701.824</ele>
        <time>2017-08-17T13:54:13Z</time>
      </trkpt>
      <trkpt lat="44.87049" lon="4.36048">
        <ele>701.42</ele>
        <time>2017-08-17T13:54:18Z</time>
      </trkpt>
      <trkpt lat="44.8705" lon="4.36048">
        <ele>702.432</ele>
        <time>2017-08-17T13:54:27Z</time>
      </trkpt>
      <trkpt lat="44.87047" lon="4.36045">
        <ele>702.268</ele>
        <time>2017-08-17T13:54:40Z</time>
      </trkpt>
      <trkpt lat="44.8704" lon="4.36041">
        <ele>701.632</ele>
        <time>2017-08-17T13:54:48Z</time>
      </trkpt>
      <trkpt lat="44.87031" lon="4.36037">
        <ele>701.433</ele>
        <time>2017-08-17T13:54:55Z</time>
      </trkpt>
      <trkpt lat="44.87025" lon="4.36034">
        <ele>701.362</ele>
        <time>2017-08-17T13:55:02Z</time>
      </trkpt>
      <trkpt lat="44.87018" lon="4.3603">
        <ele>700.685</ele>
        <time>2017-08-17T13:55:09Z</time>
      </trkpt>
      <trkpt lat="44.87013" lon="4.36027">
        <ele>700.185</ele>
        <time>2017-08-17T13:55:15Z</time>
      </trkpt>
      <trkpt lat="44.87009" lon="4.36022">
        <ele>700.467</ele>
        <time>2017-08-17T13:55:21Z</time>
      </trkpt>
      <trkpt lat="44.87002" lon="4.36018">
        <ele>700.925</ele>
        <time>2017-08-17T13:55:29Z</time>
      </trkpt>
      <trkpt lat="44.86998" lon="4.36015">
        <ele>701.745</ele>
        <time>2017-08-17T13:55:34Z</time>
      </trkpt>
      <trkpt lat="44.86992" lon="4.36011">
        <ele>702.405</ele>
        <time>2017-08-17T13:55:40Z</time>
      </trkpt>
      <trkpt lat="44.86984" lon="4.36006">
        <ele>704.082</ele>
        <time>2017-08-17T13:55:49Z</time>
      </trkpt>
      <trkpt lat="44.86979" lon="4.35999">
        <ele>704.535</ele>
        <time>2017-08-17T13:55:59Z</time>
      </trkpt>
      <trkpt lat="44.8697" lon="4.35988">
        <ele>706.781</ele>
        <time>2017-08-17T13:56:09Z</time>
      </trkpt>
      <trkpt lat="44.86965" lon="4.35988">
        <ele>708.248</ele>
        <time>2017-08-17T13:56:17Z</time>
      </trkpt>
      <trkpt lat="44.8696" lon="4.35991">
        <ele>708.914</ele>
        <time>2017-08-17T13:56:25Z</time>
      </trkpt>
      <trkpt lat="44.86963" lon="4.35991">
        <ele>708.511</ele>
        <time>2017-08-17T13:56:53Z</time>
      </trkpt>
      <trkpt lat="44.86963" lon="4.35995">
        <ele>709.035</ele>
        <time>2017-08-17T13:56:55Z</time>
      </trkpt>
      <trkpt lat="44.86952" lon="4.36005">
        <ele>709.538</ele>
        <time>2017-08-17T13:57:06Z</time>
      </trkpt>
      <trkpt lat="44.86948" lon="4.36004">
        <ele>709.857</ele>
        <time>2017-08-17T13:57:15Z</time>
      </trkpt>
      <trkpt lat="44.86944" lon="4.36005">
        <ele>711.221</ele>
        <time>2017-08-17T13:57:32Z</time>
      </trkpt>
      <trkpt lat="44.86943" lon="4.36007">
        <ele>712.246</ele>
        <time>2017-08-17T13:57:38Z</time>
      </trkpt>
      <trkpt lat="44.86939" lon="4.3601">
        <ele>712.805</ele>
        <time>2017-08-17T13:57:46Z</time>
      </trkpt>
      <trkpt lat="44.86934" lon="4.36016">
        <ele>714.186</ele>
        <time>2017-08-17T13:57:53Z</time>
      </trkpt>
      <trkpt lat="44.8693" lon="4.3602">
        <ele>715.745</ele>
        <time>2017-08-17T13:58:00Z</time>
      </trkpt>
      <trkpt lat="44.86927" lon="4.36022">
        <ele>716.653</ele>
        <time>2017-08-17T13:58:07Z</time>
      </trkpt>
      <trkpt lat="44.86924" lon="4.3602">
        <ele>717.549</ele>
        <time>2017-08-17T13:58:23Z</time>
      </trkpt>
      <trkpt lat="44.8692" lon="4.36017">
        <ele>718.832</ele>
        <time>2017-08-17T13:58:28Z</time>
      </trkpt>
      <trkpt lat="44.86914" lon="4.36015">
        <ele>719.453</ele>
        <time>2017-08-17T13:58:35Z</time>
      </trkpt>
      <trkpt lat="44.86908" lon="4.36004">
        <ele>721.277</ele>
        <time>2017-08-17T13:58:44Z</time>
      </trkpt>
      <trkpt lat="44.86907" lon="4.36001">
        <ele>721.009</ele>
        <time>2017-08-17T13:58:47Z</time>
      </trkpt>
      <trkpt lat="44.86904" lon="4.35993">
        <ele>721.635</ele>
        <time>2017-08-17T13:58:54Z</time>
      </trkpt>
      <trkpt lat="44.86903" lon="4.35985">
        <ele>722.668</ele>
        <time>2017-08-17T13:59:02Z</time>
      </trkpt>
      <trkpt lat="44.86904" lon="4.35979">
        <ele>723.915</ele>
        <time>2017-08-17T13:59:28Z</time>
      </trkpt>
      <trkpt lat="44.86901" lon="4.35969">
        <ele>724.147</ele>
        <time>2017-08-17T13:59:36Z</time>
      </trkpt>
      <trkpt lat="44.869" lon="4.35961">
        <ele>724.235</ele>
        <time>2017-08-17T13:59:43Z</time>
      </trkpt>
      <trkpt lat="44.869" lon="4.3595">
        <ele>724.95</ele>
        <time>2017-08-17T13:59:51Z</time>
      </trkpt>
      <trkpt lat="44.86899" lon="4.35942">
        <ele>725.256</ele>
        <time>2017-08-17T13:59:59Z</time>
      </trkpt>
      <trkpt lat="44.86899" lon="4.35939">
        <ele>724.446</ele>
        <time>2017-08-17T14:00:07Z</time>
      </trkpt>
      <trkpt lat="44.86891" lon="4.35931">
        <ele>723.853</ele>
        <time>2017-08-17T14:00:22Z</time>
      </trkpt>
      <trkpt lat="44.86889" lon="4.35917">
        <ele>724.138</ele>
        <time>2017-08-17T14:00:32Z</time>
      </trkpt>
      <trkpt lat="44.86887" lon="4.35912">
        <ele>724.053</ele>
        <time>2017-08-17T14:00:36Z</time>
      </trkpt>
      <trkpt lat="44.86886" lon="4.35908">
        <ele>724.297</ele>
        <time>2017-08-17T14:00:42Z</time>
      </trkpt>
      <trkpt lat="44.86885" lon="4.35901">
        <ele>724.038</ele>
        <time>2017-08-17T14:00:47Z</time>
      </trkpt>
      <trkpt lat="44.86881" lon="4.35895">
        <ele>725.755</ele>
        <time>2017-08-17T14:00:54Z</time>
      </trkpt>
      <trkpt lat="44.86879" lon="4.35892">
        <ele>724.378</ele>
        <time>2017-08-17T14:01:12Z</time>
      </trkpt>
      <trkpt lat="44.86871" lon="4.35872">
        <ele>724.128</ele>
        <time>2017-08-17T14:01:25Z</time>
      </trkpt>
      <trkpt lat="44.86862" lon="4.35858">
        <ele>725.103</ele>
        <time>2017-08-17T14:01:38Z</time>
      </trkpt>
      <trkpt lat="44.86859" lon="4.3585">
        <ele>724.865</ele>
        <time>2017-08-17T14:01:46Z</time>
      </trkpt>
      <trkpt lat="44.86856" lon="4.35846">
        <ele>724.216</ele>
        <time>2017-08-17T14:01:50Z</time>
      </trkpt>
      <trkpt lat="44.86851" lon="4.35837">
        <ele>724.653</ele>
        <time>2017-08-17T14:01:59Z</time>
      </trkpt>
      <trkpt lat="44.86851" lon="4.3583">
        <ele>725.774</ele>
        <time>2017-08-17T14:02:06Z</time>
      </trkpt>
      <trkpt lat="44.86851" lon="4.35816">
        <ele>727.082</ele>
        <time>2017-08-17T14:02:16Z</time>
      </trkpt>
      <trkpt lat="44.8685" lon="4.35805">
        <ele>728.228</ele>
        <time>2017-08-17T14:02:26Z</time>
      </trkpt>
      <trkpt lat="44.86851" lon="4.35794">
        <ele>729.401</ele>
        <time>2017-08-17T14:02:35Z</time>
      </trkpt>
      <trkpt lat="44.86856" lon="4.35783">
        <ele>731.586</ele>
        <time>2017-08-17T14:02:45Z</time>
      </trkpt>
      <trkpt lat="44.86859" lon="4.35777">
        <ele>733.371</ele>
        <time>2017-08-17T14:02:55Z</time>
      </trkpt>
      <trkpt lat="44.86863" lon="4.35775">
        <ele>734.339</ele>
        <time>2017-08-17T14:03:06Z</time>
      </trkpt>
      <trkpt lat="44.86868" lon="4.3577">
        <ele>735.139</ele>
        <time>2017-08-17T14:03:14Z</time>
      </trkpt>
      <trkpt lat="44.86879" lon="4.35761">
        <ele>735.119</ele>
        <time>2017-08-17T14:03:23Z</time>
      </trkpt>
      <trkpt lat="44.86883" lon="4.3576">
        <ele>736.051</ele>
        <time>2017-08-17T14:03:29Z</time>
      </trkpt>
      <trkpt lat="44.86889" lon="4.35757">
        <ele>736.18</ele>
        <time>2017-08-17T14:03:36Z</time>
      </trkpt>
      <trkpt lat="44.86893" lon="4.3575">
        <ele>736.45</ele>
        <time>2017-08-17T14:04:08Z</time>
      </trkpt>
      <trkpt lat="44.86897" lon="4.35743">
        <ele>738.216</ele>
        <time>2017-08-17T14:04:19Z</time>
      </trkpt>
      <trkpt lat="44.86901" lon="4.35737">
        <ele>737.803</ele>
        <time>2017-08-17T14:04:25Z</time>
      </trkpt>
      <trkpt lat="44.86903" lon="4.35733">
        <ele>739.304</ele>
        <time>2017-08-17T14:04:28Z</time>
      </trkpt>
      <trkpt lat="44.86903" lon="4.3573">
        <ele>737.548</ele>
        <time>2017-08-17T14:04:30Z</time>
      </trkpt>
      <trkpt lat="44.86909" lon="4.35721">
        <ele>739.466</ele>
        <time>2017-08-17T14:04:39Z</time>
      </trkpt>
      <trkpt lat="44.86914" lon="4.35714">
        <ele>737.733</ele>
        <time>2017-08-17T14:04:47Z</time>
      </trkpt>
      <trkpt lat="44.86921" lon="4.35715">
        <ele>737.944</ele>
        <time>2017-08-17T14:04:56Z</time>
      </trkpt>
      <trkpt lat="44.86933" lon="4.35709">
        <ele>738.711</ele>
        <time>2017-08-17T14:05:08Z</time>
      </trkpt>
      <trkpt lat="44.86938" lon="4.35707">
        <ele>738.864</ele>
        <time>2017-08-17T14:05:14Z</time>
      </trkpt>
      <trkpt lat="44.86948" lon="4.35702">
        <ele>738.596</ele>
        <time>2017-08-17T14:05:26Z</time>
      </trkpt>
      <trkpt lat="44.86951" lon="4.35701">
        <ele>739.488</ele>
        <time>2017-08-17T14:05:33Z</time>
      </trkpt>
      <trkpt lat="44.86958" lon="4.35696">
        <ele>740.891</ele>
        <time>2017-08-17T14:05:44Z</time>
      </trkpt>
      <trkpt lat="44.86967" lon="4.35692">
        <ele>741.817</ele>
        <time>2017-08-17T14:05:54Z</time>
      </trkpt>
      <trkpt lat="44.86981" lon="4.35687">
        <ele>742.639</ele>
        <time>2017-08-17T14:06:17Z</time>
      </trkpt>
      <trkpt lat="44.86984" lon="4.35688">
        <ele>742.688</ele>
        <time>2017-08-17T14:06:27Z</time>
      </trkpt>
      <trkpt lat="44.8699" lon="4.35678">
        <ele>743.231</ele>
        <time>2017-08-17T14:06:42Z</time>
      </trkpt>
      <trkpt lat="44.8699" lon="4.35666">
        <ele>741.38</ele>
        <time>2017-08-17T14:06:54Z</time>
      </trkpt>
      <trkpt lat="44.87" lon="4.35644">
        <ele>740.603</ele>
        <time>2017-08-17T14:07:08Z</time>
      </trkpt>
      <trkpt lat="44.87" lon="4.35634">
        <ele>739.624</ele>
        <time>2017-08-17T14:07:17Z</time>
      </trkpt>
      <trkpt lat="44.87001" lon="4.35614">
        <ele>739.397</ele>
        <time>2017-08-17T14:07:30Z</time>
      </trkpt>
      <trkpt lat="44.87" lon="4.3561">
        <ele>739.646</ele>
        <time>2017-08-17T14:07:33Z</time>
      </trkpt>
      <trkpt lat="44.86994" lon="4.35605">
        <ele>738.831</ele>
        <time>2017-08-17T14:07:37Z</time>
      </trkpt>
      <trkpt lat="44.86994" lon="4.356">
        <ele>739.441</ele>
        <time>2017-08-17T14:07:42Z</time>
      </trkpt>
      <trkpt lat="44.86993" lon="4.35591">
        <ele>738.982</ele>
        <time>2017-08-17T14:07:49Z</time>
      </trkpt>
      <trkpt lat="44.86993" lon="4.35588">
        <ele>740.821</ele>
        <time>2017-08-17T14:07:51Z</time>
      </trkpt>
      <trkpt lat="44.86995" lon="4.35572">
        <ele>741.779</ele>
        <time>2017-08-17T14:08:01Z</time>
      </trkpt>
      <trkpt lat="44.86998" lon="4.35562">
        <ele>742.107</ele>
        <time>2017-08-17T14:08:11Z</time>
      </trkpt>
      <trkpt lat="44.87003" lon="4.35557">
        <ele>742.66</ele>
        <time>2017-08-17T14:08:45Z</time>
      </trkpt>
      <trkpt lat="44.87008" lon="4.35548">
        <ele>745.21</ele>
        <time>2017-08-17T14:09:04Z</time>
      </trkpt>
      <trkpt lat="44.87009" lon="4.35536">
        <ele>746.923</ele>
        <time>2017-08-17T14:09:14Z</time>
      </trkpt>
      <trkpt lat="44.87016" lon="4.35516">
        <ele>749.078</ele>
        <time>2017-08-17T14:09:34Z</time>
      </trkpt>
      <trkpt lat="44.87027" lon="4.35501">
        <ele>752.128</ele>
        <time>2017-08-17T14:09:53Z</time>
      </trkpt>
      <trkpt lat="44.87036" lon="4.3548">
        <ele>754.74</ele>
        <time>2017-08-17T14:10:14Z</time>
      </trkpt>
      <trkpt lat="44.87038" lon="4.35469">
        <ele>756.287</ele>
        <time>2017-08-17T14:10:24Z</time>
      </trkpt>
      <trkpt lat="44.87039" lon="4.35457">
        <ele>756.78</ele>
        <time>2017-08-17T14:10:33Z</time>
      </trkpt>
      <trkpt lat="44.87039" lon="4.35445">
        <ele>757.271</ele>
        <time>2017-08-17T14:10:42Z</time>
      </trkpt>
      <trkpt lat="44.87036" lon="4.35435">
        <ele>757.318</ele>
        <time>2017-08-17T14:10:50Z</time>
      </trkpt>
      <trkpt lat="44.87033" lon="4.35424">
        <ele>757.453</ele>
        <time>2017-08-17T14:10:57Z</time>
      </trkpt>
      <trkpt lat="44.87034" lon="4.35414">
        <ele>757.349</ele>
        <time>2017-08-17T14:11:04Z</time>
      </trkpt>
      <trkpt lat="44.87036" lon="4.35408">
        <ele>760.741</ele>
        <time>2017-08-17T14:12:34Z</time>
      </trkpt>
      <trkpt lat="44.87045" lon="4.35386">
        <ele>760.728</ele>
        <time>2017-08-17T14:12:56Z</time>
      </trkpt>
      <trkpt lat="44.87067" lon="4.35364">
        <ele>761.891</ele>
        <time>2017-08-17T14:13:11Z</time>
      </trkpt>
      <trkpt lat="44.87082" lon="4.35357">
        <ele>764.342</ele>
        <time>2017-08-17T14:13:24Z</time>
      </trkpt>
      <trkpt lat="44.87092" lon="4.35357">
        <ele>766.756</ele>
        <time>2017-08-17T14:13:35Z</time>
      </trkpt>
      <trkpt lat="44.87087" lon="4.35357">
        <ele>766.833</ele>
        <time>2017-08-17T14:13:44Z</time>
      </trkpt>
      <trkpt lat="44.87084" lon="4.35357">
        <ele>766.573</ele>
        <time>2017-08-17T14:13:58Z</time>
      </trkpt>
      <trkpt lat="44.87084" lon="4.35353">
        <ele>767.551</ele>
        <time>2017-08-17T14:14:11Z</time>
      </trkpt>
      <trkpt lat="44.87086" lon="4.35354">
        <ele>767.351</ele>
        <time>2017-08-17T14:14:34Z</time>
      </trkpt>
      <trkpt lat="44.87087" lon="4.3535">
        <ele>766.896</ele>
        <time>2017-08-17T14:15:04Z</time>
      </trkpt>
      <trkpt lat="44.87086" lon="4.35346">
        <ele>766.554</ele>
        <time>2017-08-17T14:15:06Z</time>
      </trkpt>
      <trkpt lat="44.87087" lon="4.35339">
        <ele>766.584</ele>
        <time>2017-08-17T14:15:13Z</time>
      </trkpt>
      <trkpt lat="44.87088" lon="4.35329">
        <ele>766.792</ele>
        <time>2017-08-17T14:15:23Z</time>
      </trkpt>
      <trkpt lat="44.87087" lon="4.35325">
        <ele>766.626</ele>
        <time>2017-08-17T14:15:31Z</time>
      </trkpt>
      <trkpt lat="44.87084" lon="4.35309">
        <ele>766.743</ele>
        <time>2017-08-17T14:15:43Z</time>
      </trkpt>
      <trkpt lat="44.87081" lon="4.35302">
        <ele>766.799</ele>
        <time>2017-08-17T14:15:50Z</time>
      </trkpt>
      <trkpt lat="44.8708" lon="4.35299">
        <ele>766.726</ele>
        <time>2017-08-17T14:15:53Z</time>
      </trkpt>
      <trkpt lat="44.87075" lon="4.35292">
        <ele>766.67</ele>
        <time>2017-08-17T14:15:59Z</time>
      </trkpt>
      <trkpt lat="44.87072" lon="4.35285">
        <ele>767.226</ele>
        <time>2017-08-17T14:16:06Z</time>
      </trkpt>
      <trkpt lat="44.8707" lon="4.3528">
        <ele>766.925</ele>
        <time>2017-08-17T14:16:11Z</time>
      </trkpt>
      <trkpt lat="44.87063" lon="4.35268">
        <ele>766.543</ele>
        <time>2017-08-17T14:16:19Z</time>
      </trkpt>
      <trkpt lat="44.8706" lon="4.35258">
        <ele>766.246</ele>
        <time>2017-08-17T14:16:27Z</time>
      </trkpt>
      <trkpt lat="44.87059" lon="4.35249">
        <ele>766.493</ele>
        <time>2017-08-17T14:16:35Z</time>
      </trkpt>
      <trkpt lat="44.87058" lon="4.35242">
        <ele>766.318</ele>
        <time>2017-08-17T14:16:42Z</time>
      </trkpt>
      <trkpt lat="44.87061" lon="4.35229">
        <ele>766.28</ele>
        <time>2017-08-17T14:16:51Z</time>
      </trkpt>
      <trkpt lat="44.87064" lon="4.35221">
        <ele>765.748</ele>
        <time>2017-08-17T14:16:58Z</time>
      </trkpt>
      <trkpt lat="44.8707" lon="4.35215">
        <ele>765.613</ele>
        <time>2017-08-17T14:17:06Z</time>
      </trkpt>
      <trkpt lat="44.87073" lon="4.3521">
        <ele>765.614</ele>
        <time>2017-08-17T14:17:11Z</time>
      </trkpt>
      <trkpt lat="44.87076" lon="4.35201">
        <ele>765.976</ele>
        <time>2017-08-17T14:17:18Z</time>
      </trkpt>
      <trkpt lat="44.87078" lon="4.35193">
        <ele>766.337</ele>
        <time>2017-08-17T14:17:23Z</time>
      </trkpt>
      <trkpt lat="44.87078" lon="4.35187">
        <ele>765.861</ele>
        <time>2017-08-17T14:17:29Z</time>
      </trkpt>
      <trkpt lat="44.87077" lon="4.35182">
        <ele>765.724</ele>
        <time>2017-08-17T14:17:32Z</time>
      </trkpt>
      <trkpt lat="44.87075" lon="4.35177">
        <ele>764.683</ele>
        <time>2017-08-17T14:17:41Z</time>
      </trkpt>
      <trkpt lat="44.87073" lon="4.35177">
        <ele>764.703</ele>
        <time>2017-08-17T14:17:49Z</time>
      </trkpt>
      <trkpt lat="44.87067" lon="4.35172">
        <ele>763.682</ele>
        <time>2017-08-17T14:17:57Z</time>
      </trkpt>
      <trkpt lat="44.87064" lon="4.35169">
        <ele>762.783</ele>
        <time>2017-08-17T14:18:00Z</time>
      </trkpt>
      <trkpt lat="44.87052" lon="4.35154">
        <ele>762.012</ele>
        <time>2017-08-17T14:18:14Z</time>
      </trkpt>
      <trkpt lat="44.87047" lon="4.35147">
        <ele>761.057</ele>
        <time>2017-08-17T14:18:23Z</time>
      </trkpt>
      <trkpt lat="44.87043" lon="4.35141">
        <ele>760.412</ele>
        <time>2017-08-17T14:18:31Z</time>
      </trkpt>
      <trkpt lat="44.87044" lon="4.35143">
        <ele>761.054</ele>
        <time>2017-08-17T14:18:57Z</time>
      </trkpt>
      <trkpt lat="44.87046" lon="4.35146">
        <ele>761.157</ele>
        <time>2017-08-17T14:19:14Z</time>
      </trkpt>
      <trkpt lat="44.8705" lon="4.35151">
        <ele>762.374</ele>
        <time>2017-08-17T14:19:24Z</time>
      </trkpt>
      <trkpt lat="44.87054" lon="4.35155">
        <ele>763.078</ele>
        <time>2017-08-17T14:19:28Z</time>
      </trkpt>
      <trkpt lat="44.87066" lon="4.35169">
        <ele>762.866</ele>
        <time>2017-08-17T14:19:42Z</time>
      </trkpt>
      <trkpt lat="44.87075" lon="4.35173">
        <ele>764.226</ele>
        <time>2017-08-17T14:19:53Z</time>
      </trkpt>
      <trkpt lat="44.87083" lon="4.35171">
        <ele>766.105</ele>
        <time>2017-08-17T14:20:05Z</time>
      </trkpt>
      <trkpt lat="44.87088" lon="4.35163">
        <ele>767.06</ele>
        <time>2017-08-17T14:20:16Z</time>
      </trkpt>
      <trkpt lat="44.87091" lon="4.35161">
        <ele>766.565</ele>
        <time>2017-08-17T14:20:26Z</time>
      </trkpt>
      <trkpt lat="44.87097" lon="4.35159">
        <ele>766.808</ele>
        <time>2017-08-17T14:20:37Z</time>
      </trkpt>
      <trkpt lat="44.87103" lon="4.35159">
        <ele>766.982</ele>
        <time>2017-08-17T14:20:46Z</time>
      </trkpt>
      <trkpt lat="44.87107" lon="4.3516">
        <ele>767.08</ele>
        <time>2017-08-17T14:21:03Z</time>
      </trkpt>
      <trkpt lat="44.87113" lon="4.35155">
        <ele>766.982</ele>
        <time>2017-08-17T14:21:11Z</time>
      </trkpt>
      <trkpt lat="44.87117" lon="4.3515">
        <ele>767.502</ele>
        <time>2017-08-17T14:21:32Z</time>
      </trkpt>
      <trkpt lat="44.87119" lon="4.3515">
        <ele>767.354</ele>
        <time>2017-08-17T14:21:45Z</time>
      </trkpt>
      <trkpt lat="44.87124" lon="4.35148">
        <ele>767.665</ele>
        <time>2017-08-17T14:21:56Z</time>
      </trkpt>
      <trkpt lat="44.87124" lon="4.35145">
        <ele>767.996</ele>
        <time>2017-08-17T14:22:22Z</time>
      </trkpt>
      <trkpt lat="44.87128" lon="4.35146">
        <ele>766.944</ele>
        <time>2017-08-17T14:22:48Z</time>
      </trkpt>
      <trkpt lat="44.87132" lon="4.35149">
        <ele>766.299</ele>
        <time>2017-08-17T14:23:06Z</time>
      </trkpt>
      <trkpt lat="44.87135" lon="4.35152">
        <ele>766.061</ele>
        <time>2017-08-17T14:23:20Z</time>
      </trkpt>
      <trkpt lat="44.87146" lon="4.3516">
        <ele>764.297</ele>
        <time>2017-08-17T14:24:31Z</time>
      </trkpt>
      <trkpt lat="44.87153" lon="4.35172">
        <ele>762.763</ele>
        <time>2017-08-17T14:24:41Z</time>
      </trkpt>
      <trkpt lat="44.87152" lon="4.35188">
        <ele>761.417</ele>
        <time>2017-08-17T14:24:52Z</time>
      </trkpt>
      <trkpt lat="44.87154" lon="4.35192">
        <ele>760.883</ele>
        <time>2017-08-17T14:24:59Z</time>
      </trkpt>
      <trkpt lat="44.87157" lon="4.3519">
        <ele>760.774</ele>
        <time>2017-08-17T14:25:12Z</time>
      </trkpt>
      <trkpt lat="44.8716" lon="4.35187">
        <ele>759.421</ele>
        <time>2017-08-17T14:25:21Z</time>
      </trkpt>
      <trkpt lat="44.87165" lon="4.35187">
        <ele>758.176</ele>
        <time>2017-08-17T14:25:30Z</time>
      </trkpt>
      <trkpt lat="44.8717" lon="4.35182">
        <ele>756.85</ele>
        <time>2017-08-17T14:25:53Z</time>
      </trkpt>
      <trkpt lat="44.87175" lon="4.3518">
        <ele>755.747</ele>
        <time>2017-08-17T14:25:59Z</time>
      </trkpt>
      <trkpt lat="44.87179" lon="4.35176">
        <ele>754.809</ele>
        <time>2017-08-17T14:26:06Z</time>
      </trkpt>
      <trkpt lat="44.87184" lon="4.35171">
        <ele>753.957</ele>
        <time>2017-08-17T14:26:14Z</time>
      </trkpt>
      <trkpt lat="44.87187" lon="4.3517">
        <ele>752.673</ele>
        <time>2017-08-17T14:26:22Z</time>
      </trkpt>
      <trkpt lat="44.87196" lon="4.35182">
        <ele>751.567</ele>
        <time>2017-08-17T14:26:32Z</time>
      </trkpt>
      <trkpt lat="44.87199" lon="4.35187">
        <ele>750.5</ele>
        <time>2017-08-17T14:26:41Z</time>
      </trkpt>
      <trkpt lat="44.87202" lon="4.35193">
        <ele>749.628</ele>
        <time>2017-08-17T14:26:49Z</time>
      </trkpt>
      <trkpt lat="44.87207" lon="4.35202">
        <ele>748.326</ele>
        <time>2017-08-17T14:26:58Z</time>
      </trkpt>
      <trkpt lat="44.87202" lon="4.35216">
        <ele>747.582</ele>
        <time>2017-08-17T14:27:07Z</time>
      </trkpt>
      <trkpt lat="44.87197" lon="4.35219">
        <ele>748.339</ele>
        <time>2017-08-17T14:27:11Z</time>
      </trkpt>
      <trkpt lat="44.87197" lon="4.35215">
        <ele>748.143</ele>
        <time>2017-08-17T14:27:21Z</time>
      </trkpt>
      <trkpt lat="44.87198" lon="4.35217">
        <ele>746.846</ele>
        <time>2017-08-17T14:27:25Z</time>
      </trkpt>
      <trkpt lat="44.872" lon="4.35213">
        <ele>746.045</ele>
        <time>2017-08-17T14:27:32Z</time>
      </trkpt>
      <trkpt lat="44.87202" lon="4.35211">
        <ele>745.821</ele>
        <time>2017-08-17T14:27:35Z</time>
      </trkpt>
      <trkpt lat="44.87207" lon="4.35206">
        <ele>744.027</ele>
        <time>2017-08-17T14:27:44Z</time>
      </trkpt>
      <trkpt lat="44.87209" lon="4.35218">
        <ele>742.973</ele>
        <time>2017-08-17T14:27:52Z</time>
      </trkpt>
      <trkpt lat="44.87208" lon="4.35226">
        <ele>741.845</ele>
        <time>2017-08-17T14:27:59Z</time>
      </trkpt>
      <trkpt lat="44.8721" lon="4.35231">
        <ele>740.927</ele>
        <time>2017-08-17T14:28:05Z</time>
      </trkpt>
      <trkpt lat="44.87208" lon="4.35241">
        <ele>739.714</ele>
        <time>2017-08-17T14:28:13Z</time>
      </trkpt>
      <trkpt lat="44.87208" lon="4.35251">
        <ele>738.713</ele>
        <time>2017-08-17T14:28:20Z</time>
      </trkpt>
      <trkpt lat="44.87208" lon="4.35258">
        <ele>738.052</ele>
        <time>2017-08-17T14:28:45Z</time>
      </trkpt>
      <trkpt lat="44.87204" lon="4.35266">
        <ele>736.838</ele>
        <time>2017-08-17T14:28:53Z</time>
      </trkpt>
      <trkpt lat="44.87204" lon="4.35269">
        <ele>736.352</ele>
        <time>2017-08-17T14:29:01Z</time>
      </trkpt>
      <trkpt lat="44.87206" lon="4.35277">
        <ele>735.207</ele>
        <time>2017-08-17T14:29:09Z</time>
      </trkpt>
      <trkpt lat="44.87211" lon="4.35283">
        <ele>733.694</ele>
        <time>2017-08-17T14:29:19Z</time>
      </trkpt>
      <trkpt lat="44.87209" lon="4.35286">
        <ele>732.931</ele>
        <time>2017-08-17T14:29:36Z</time>
      </trkpt>
      <trkpt lat="44.87215" lon="4.35287">
        <ele>732</ele>
        <time>2017-08-17T14:29:43Z</time>
      </trkpt>
      <trkpt lat="44.87217" lon="4.35289">
        <ele>731.096</ele>
        <time>2017-08-17T14:29:45Z</time>
      </trkpt>
      <trkpt lat="44.87227" lon="4.35294">
        <ele>730.461</ele>
        <time>2017-08-17T14:29:54Z</time>
      </trkpt>
      <trkpt lat="44.87236" lon="4.35302">
        <ele>728.674</ele>
        <time>2017-08-17T14:30:05Z</time>
      </trkpt>
      <trkpt lat="44.87235" lon="4.35306">
        <ele>727.82</ele>
        <time>2017-08-17T14:30:16Z</time>
      </trkpt>
      <trkpt lat="44.87242" lon="4.35311">
        <ele>727.394</ele>
        <time>2017-08-17T14:30:24Z</time>
      </trkpt>
      <trkpt lat="44.87251" lon="4.35318">
        <ele>726.864</ele>
        <time>2017-08-17T14:30:33Z</time>
      </trkpt>
      <trkpt lat="44.87266" lon="4.35324">
        <ele>725.798</ele>
        <time>2017-08-17T14:30:46Z</time>
      </trkpt>
      <trkpt lat="44.87274" lon="4.35332">
        <ele>725.024</ele>
        <time>2017-08-17T14:30:55Z</time>
      </trkpt>
      <trkpt lat="44.87279" lon="4.35344">
        <ele>724.02</ele>
        <time>2017-08-17T14:31:04Z</time>
      </trkpt>
      <trkpt lat="44.87284" lon="4.35354">
        <ele>724.119</ele>
        <time>2017-08-17T14:31:15Z</time>
      </trkpt>
      <trkpt lat="44.87288" lon="4.35361">
        <ele>723.278</ele>
        <time>2017-08-17T14:31:21Z</time>
      </trkpt>
      <trkpt lat="44.87288" lon="4.35366">
        <ele>722.823</ele>
        <time>2017-08-17T14:31:31Z</time>
      </trkpt>
      <trkpt lat="44.87291" lon="4.35373">
        <ele>722.066</ele>
        <time>2017-08-17T14:31:44Z</time>
      </trkpt>
      <trkpt lat="44.87297" lon="4.35379">
        <ele>722.138</ele>
        <time>2017-08-17T14:31:53Z</time>
      </trkpt>
      <trkpt lat="44.87298" lon="4.35382">
        <ele>721.605</ele>
        <time>2017-08-17T14:32:09Z</time>
      </trkpt>
      <trkpt lat="44.87301" lon="4.35383">
        <ele>721.098</ele>
        <time>2017-08-17T14:32:35Z</time>
      </trkpt>
      <trkpt lat="44.87302" lon="4.35386">
        <ele>720.735</ele>
        <time>2017-08-17T14:34:31Z</time>
      </trkpt>
      <trkpt lat="44.87305" lon="4.35394">
        <ele>719.655</ele>
        <time>2017-08-17T14:34:38Z</time>
      </trkpt>
      <trkpt lat="44.87311" lon="4.35402">
        <ele>717.81</ele>
        <time>2017-08-17T14:34:49Z</time>
      </trkpt>
      <trkpt lat="44.87313" lon="4.35405">
        <ele>717.794</ele>
        <time>2017-08-17T14:35:11Z</time>
      </trkpt>
      <trkpt lat="44.87313" lon="4.35418">
        <ele>716.461</ele>
        <time>2017-08-17T14:35:22Z</time>
      </trkpt>
      <trkpt lat="44.8731" lon="4.35424">
        <ele>716.282</ele>
        <time>2017-08-17T14:35:43Z</time>
      </trkpt>
      <trkpt lat="44.87306" lon="4.35434">
        <ele>715.779</ele>
        <time>2017-08-17T14:35:53Z</time>
      </trkpt>
      <trkpt lat="44.87304" lon="4.35439">
        <ele>714.928</ele>
        <time>2017-08-17T14:36:05Z</time>
      </trkpt>
      <trkpt lat="44.87302" lon="4.35446">
        <ele>714.65</ele>
        <time>2017-08-17T14:36:13Z</time>
      </trkpt>
      <trkpt lat="44.87303" lon="4.3545">
        <ele>714.349</ele>
        <time>2017-08-17T14:36:57Z</time>
      </trkpt>
      <trkpt lat="44.87306" lon="4.35461">
        <ele>713.849</ele>
        <time>2017-08-17T14:37:05Z</time>
      </trkpt>
      <trkpt lat="44.87307" lon="4.35467">
        <ele>713.827</ele>
        <time>2017-08-17T14:37:09Z</time>
      </trkpt>
      <trkpt lat="44.87309" lon="4.35476">
        <ele>712.764</ele>
        <time>2017-08-17T14:37:16Z</time>
      </trkpt>
      <trkpt lat="44.87316" lon="4.35481">
        <ele>712.6</ele>
        <time>2017-08-17T14:37:25Z</time>
      </trkpt>
      <trkpt lat="44.87319" lon="4.3548">
        <ele>712.232</ele>
        <time>2017-08-17T14:37:34Z</time>
      </trkpt>
      <trkpt lat="44.87331" lon="4.35484">
        <ele>710.92</ele>
        <time>2017-08-17T14:37:46Z</time>
      </trkpt>
      <trkpt lat="44.87337" lon="4.35485">
        <ele>709.478</ele>
        <time>2017-08-17T14:37:54Z</time>
      </trkpt>
      <trkpt lat="44.87342" lon="4.3549">
        <ele>708.312</ele>
        <time>2017-08-17T14:38:03Z</time>
      </trkpt>
      <trkpt lat="44.87347" lon="4.35491">
        <ele>707.348</ele>
        <time>2017-08-17T14:38:12Z</time>
      </trkpt>
      <trkpt lat="44.87359" lon="4.35499">
        <ele>705.252</ele>
        <time>2017-08-17T14:38:24Z</time>
      </trkpt>
      <trkpt lat="44.87364" lon="4.35503">
        <ele>704.516</ele>
        <time>2017-08-17T14:38:32Z</time>
      </trkpt>
      <trkpt lat="44.87365" lon="4.35508">
        <ele>703.987</ele>
        <time>2017-08-17T14:38:41Z</time>
      </trkpt>
      <trkpt lat="44.87368" lon="4.3551">
        <ele>702.536</ele>
        <time>2017-08-17T14:38:44Z</time>
      </trkpt>
      <trkpt lat="44.87374" lon="4.35515">
        <ele>701.911</ele>
        <time>2017-08-17T14:38:52Z</time>
      </trkpt>
      <trkpt lat="44.87379" lon="4.35516">
        <ele>701.592</ele>
        <time>2017-08-17T14:39:00Z</time>
      </trkpt>
      <trkpt lat="44.87386" lon="4.35519">
        <ele>699.6</ele>
        <time>2017-08-17T14:39:10Z</time>
      </trkpt>
      <trkpt lat="44.8739" lon="4.3552">
        <ele>699.703</ele>
        <time>2017-08-17T14:39:17Z</time>
      </trkpt>
      <trkpt lat="44.87394" lon="4.35526">
        <ele>698.77</ele>
        <time>2017-08-17T14:39:27Z</time>
      </trkpt>
      <trkpt lat="44.87399" lon="4.35532">
        <ele>698.23</ele>
        <time>2017-08-17T14:39:40Z</time>
      </trkpt>
      <trkpt lat="44.87405" lon="4.35536">
        <ele>696.854</ele>
        <time>2017-08-17T14:40:03Z</time>
      </trkpt>
      <trkpt lat="44.8741" lon="4.35541">
        <ele>696.094</ele>
        <time>2017-08-17T14:40:12Z</time>
      </trkpt>
      <trkpt lat="44.87418" lon="4.35541">
        <ele>693.445</ele>
        <time>2017-08-17T14:40:30Z</time>
      </trkpt>
      <trkpt lat="44.87425" lon="4.3555">
        <ele>692.329</ele>
        <time>2017-08-17T14:40:39Z</time>
      </trkpt>
      <trkpt lat="44.87431" lon="4.35555">
        <ele>690.327</ele>
        <time>2017-08-17T14:40:53Z</time>
      </trkpt>
      <trkpt lat="44.87437" lon="4.35559">
        <ele>689.502</ele>
        <time>2017-08-17T14:41:00Z</time>
      </trkpt>
      <trkpt lat="44.87441" lon="4.35566">
        <ele>689.039</ele>
        <time>2017-08-17T14:41:09Z</time>
      </trkpt>
      <trkpt lat="44.87447" lon="4.35567">
        <ele>688.396</ele>
        <time>2017-08-17T14:41:22Z</time>
      </trkpt>
      <trkpt lat="44.87456" lon="4.35574">
        <ele>687.266</ele>
        <time>2017-08-17T14:41:32Z</time>
      </trkpt>
      <trkpt lat="44.87461" lon="4.35581">
        <ele>686.363</ele>
        <time>2017-08-17T14:41:37Z</time>
      </trkpt>
      <trkpt lat="44.87458" lon="4.35594">
        <ele>685.563</ele>
        <time>2017-08-17T14:41:46Z</time>
      </trkpt>
      <trkpt lat="44.8746" lon="4.35596">
        <ele>684.323</ele>
        <time>2017-08-17T14:41:54Z</time>
      </trkpt>
      <trkpt lat="44.87462" lon="4.35595">
        <ele>684.288</ele>
        <time>2017-08-17T14:42:03Z</time>
      </trkpt>
      <trkpt lat="44.87466" lon="4.35593">
        <ele>683.191</ele>
        <time>2017-08-17T14:42:10Z</time>
      </trkpt>
      <trkpt lat="44.87466" lon="4.35588">
        <ele>682.224</ele>
        <time>2017-08-17T14:42:15Z</time>
      </trkpt>
      <trkpt lat="44.87469" lon="4.35584">
        <ele>681.905</ele>
        <time>2017-08-17T14:42:20Z</time>
      </trkpt>
      <trkpt lat="44.87473" lon="4.35575">
        <ele>679.89</ele>
        <time>2017-08-17T14:42:28Z</time>
      </trkpt>
      <trkpt lat="44.87479" lon="4.35571">
        <ele>679.352</ele>
        <time>2017-08-17T14:42:35Z</time>
      </trkpt>
      <trkpt lat="44.87483" lon="4.35564">
        <ele>678.223</ele>
        <time>2017-08-17T14:42:43Z</time>
      </trkpt>
      <trkpt lat="44.87485" lon="4.35567">
        <ele>677.958</ele>
        <time>2017-08-17T14:42:53Z</time>
      </trkpt>
      <trkpt lat="44.87489" lon="4.35572">
        <ele>676.384</ele>
        <time>2017-08-17T14:42:58Z</time>
      </trkpt>
      <trkpt lat="44.87494" lon="4.35582">
        <ele>675.594</ele>
        <time>2017-08-17T14:43:08Z</time>
      </trkpt>
      <trkpt lat="44.87497" lon="4.35581">
        <ele>675.019</ele>
        <time>2017-08-17T14:43:18Z</time>
      </trkpt>
      <trkpt lat="44.87498" lon="4.35575">
        <ele>674.328</ele>
        <time>2017-08-17T14:43:23Z</time>
      </trkpt>
      <trkpt lat="44.87499" lon="4.35559">
        <ele>673.076</ele>
        <time>2017-08-17T14:43:34Z</time>
      </trkpt>
      <trkpt lat="44.87504" lon="4.35564">
        <ele>671.067</ele>
        <time>2017-08-17T14:43:52Z</time>
      </trkpt>
      <trkpt lat="44.87506" lon="4.35574">
        <ele>670.446</ele>
        <time>2017-08-17T14:43:59Z</time>
      </trkpt>
      <trkpt lat="44.87508" lon="4.35578">
        <ele>669.967</ele>
        <time>2017-08-17T14:44:08Z</time>
      </trkpt>
      <trkpt lat="44.87508" lon="4.35587">
        <ele>669.201</ele>
        <time>2017-08-17T14:44:25Z</time>
      </trkpt>
      <trkpt lat="44.87505" lon="4.35594">
        <ele>668.647</ele>
        <time>2017-08-17T14:44:32Z</time>
      </trkpt>
      <trkpt lat="44.875" lon="4.35601">
        <ele>668.29</ele>
        <time>2017-08-17T14:44:40Z</time>
      </trkpt>
      <trkpt lat="44.87494" lon="4.3561">
        <ele>667.459</ele>
        <time>2017-08-17T14:44:49Z</time>
      </trkpt>
      <trkpt lat="44.87492" lon="4.35617">
        <ele>666.303</ele>
        <time>2017-08-17T14:44:55Z</time>
      </trkpt>
      <trkpt lat="44.8749" lon="4.3562">
        <ele>664.401</ele>
        <time>2017-08-17T14:45:02Z</time>
      </trkpt>
      <trkpt lat="44.87495" lon="4.35627">
        <ele>663.15</ele>
        <time>2017-08-17T14:45:13Z</time>
      </trkpt>
      <trkpt lat="44.875" lon="4.35627">
        <ele>662.993</ele>
        <time>2017-08-17T14:45:20Z</time>
      </trkpt>
      <trkpt lat="44.87503" lon="4.35628">
        <ele>662.555</ele>
        <time>2017-08-17T14:45:23Z</time>
      </trkpt>
      <trkpt lat="44.87513" lon="4.35631">
        <ele>660.635</ele>
        <time>2017-08-17T14:45:34Z</time>
      </trkpt>
      <trkpt lat="44.87515" lon="4.35634">
        <ele>660.76</ele>
        <time>2017-08-17T14:45:48Z</time>
      </trkpt>
      <trkpt lat="44.87521" lon="4.35637">
        <ele>659.893</ele>
        <time>2017-08-17T14:45:55Z</time>
      </trkpt>
      <trkpt lat="44.87528" lon="4.3564">
        <ele>659.239</ele>
        <time>2017-08-17T14:46:01Z</time>
      </trkpt>
      <trkpt lat="44.87534" lon="4.35641">
        <ele>659.677</ele>
        <time>2017-08-17T14:46:11Z</time>
      </trkpt>
      <trkpt lat="44.87537" lon="4.35645">
        <ele>658.596</ele>
        <time>2017-08-17T14:46:19Z</time>
      </trkpt>
      <trkpt lat="44.8755" lon="4.3566">
        <ele>657.813</ele>
        <time>2017-08-17T14:46:30Z</time>
      </trkpt>
      <trkpt lat="44.87554" lon="4.35667">
        <ele>657.661</ele>
        <time>2017-08-17T14:46:34Z</time>
      </trkpt>
      <trkpt lat="44.8756" lon="4.35672">
        <ele>656.873</ele>
        <time>2017-08-17T14:46:39Z</time>
      </trkpt>
      <trkpt lat="44.87567" lon="4.35685">
        <ele>656.054</ele>
        <time>2017-08-17T14:46:48Z</time>
      </trkpt>
      <trkpt lat="44.87573" lon="4.35697">
        <ele>654.767</ele>
        <time>2017-08-17T14:46:57Z</time>
      </trkpt>
      <trkpt lat="44.87579" lon="4.35703">
        <ele>654.189</ele>
        <time>2017-08-17T14:47:03Z</time>
      </trkpt>
      <trkpt lat="44.87582" lon="4.35707">
        <ele>654.357</ele>
        <time>2017-08-17T14:47:24Z</time>
      </trkpt>
      <trkpt lat="44.87586" lon="4.35709">
        <ele>653.638</ele>
        <time>2017-08-17T14:47:48Z</time>
      </trkpt>
      <trkpt lat="44.8759" lon="4.35707">
        <ele>653.376</ele>
        <time>2017-08-17T14:47:56Z</time>
      </trkpt>
      <trkpt lat="44.87596" lon="4.3571">
        <ele>652.825</ele>
        <time>2017-08-17T14:48:09Z</time>
      </trkpt>
      <trkpt lat="44.87603" lon="4.35712">
        <ele>652.926</ele>
        <time>2017-08-17T14:48:17Z</time>
      </trkpt>
      <trkpt lat="44.87614" lon="4.35714">
        <ele>652.56</ele>
        <time>2017-08-17T14:48:28Z</time>
      </trkpt>
      <trkpt lat="44.87622" lon="4.35715">
        <ele>651.945</ele>
        <time>2017-08-17T14:48:37Z</time>
      </trkpt>
      <trkpt lat="44.87631" lon="4.3572">
        <ele>652.14</ele>
        <time>2017-08-17T14:48:46Z</time>
      </trkpt>
      <trkpt lat="44.87637" lon="4.35717">
        <ele>651.181</ele>
        <time>2017-08-17T14:48:51Z</time>
      </trkpt>
      <trkpt lat="44.87643" lon="4.35718">
        <ele>651.195</ele>
        <time>2017-08-17T14:48:56Z</time>
      </trkpt>
      <trkpt lat="44.87655" lon="4.35721">
        <ele>650.546</ele>
        <time>2017-08-17T14:49:07Z</time>
      </trkpt>
      <trkpt lat="44.87662" lon="4.35725">
        <ele>649.432</ele>
        <time>2017-08-17T14:49:15Z</time>
      </trkpt>
      <trkpt lat="44.87667" lon="4.35726">
        <ele>649.183</ele>
        <time>2017-08-17T14:49:24Z</time>
      </trkpt>
      <trkpt lat="44.8767" lon="4.35733">
        <ele>649.396</ele>
        <time>2017-08-17T14:49:41Z</time>
      </trkpt>
      <trkpt lat="44.87672" lon="4.35727">
        <ele>648.837</ele>
        <time>2017-08-17T14:49:45Z</time>
      </trkpt>
      <trkpt lat="44.8768" lon="4.35733">
        <ele>648.721</ele>
        <time>2017-08-17T14:49:53Z</time>
      </trkpt>
      <trkpt lat="44.87685" lon="4.35743">
        <ele>647.691</ele>
        <time>2017-08-17T14:50:02Z</time>
      </trkpt>
      <trkpt lat="44.87686" lon="4.35741">
        <ele>646.418</ele>
        <time>2017-08-17T14:50:20Z</time>
      </trkpt>
      <trkpt lat="44.87694" lon="4.35749">
        <ele>646.333</ele>
        <time>2017-08-17T14:50:28Z</time>
      </trkpt>
      <trkpt lat="44.877" lon="4.35751">
        <ele>645.694</ele>
        <time>2017-08-17T14:50:34Z</time>
      </trkpt>
      <trkpt lat="44.87708" lon="4.35752">
        <ele>645.58</ele>
        <time>2017-08-17T14:50:41Z</time>
      </trkpt>
      <trkpt lat="44.87715" lon="4.35759">
        <ele>644.445</ele>
        <time>2017-08-17T14:50:51Z</time>
      </trkpt>
      <trkpt lat="44.8772" lon="4.35765">
        <ele>643.248</ele>
        <time>2017-08-17T14:50:57Z</time>
      </trkpt>
      <trkpt lat="44.87724" lon="4.35768">
        <ele>643.044</ele>
        <time>2017-08-17T14:51:00Z</time>
      </trkpt>
      <trkpt lat="44.87727" lon="4.35771">
        <ele>642.37</ele>
        <time>2017-08-17T14:51:06Z</time>
      </trkpt>
      <trkpt lat="44.87732" lon="4.35774">
        <ele>641.725</ele>
        <time>2017-08-17T14:51:13Z</time>
      </trkpt>
      <trkpt lat="44.87735" lon="4.35781">
        <ele>641.402</ele>
        <time>2017-08-17T14:51:20Z</time>
      </trkpt>
      <trkpt lat="44.87741" lon="4.35787">
        <ele>640.568</ele>
        <time>2017-08-17T14:51:29Z</time>
      </trkpt>
      <trkpt lat="44.87747" lon="4.35795">
        <ele>639.909</ele>
        <time>2017-08-17T14:51:36Z</time>
      </trkpt>
      <trkpt lat="44.87749" lon="4.35797">
        <ele>639.642</ele>
        <time>2017-08-17T14:51:39Z</time>
      </trkpt>
      <trkpt lat="44.87756" lon="4.35808">
        <ele>639.126</ele>
        <time>2017-08-17T14:51:44Z</time>
      </trkpt>
      <trkpt lat="44.8776" lon="4.3581">
        <ele>638.442</ele>
        <time>2017-08-17T14:51:52Z</time>
      </trkpt>
      <trkpt lat="44.87766" lon="4.35816">
        <ele>637.442</ele>
        <time>2017-08-17T14:51:59Z</time>
      </trkpt>
      <trkpt lat="44.87769" lon="4.3582">
        <ele>637.739</ele>
        <time>2017-08-17T14:52:03Z</time>
      </trkpt>
      <trkpt lat="44.87771" lon="4.35826">
        <ele>636.371</ele>
        <time>2017-08-17T14:52:09Z</time>
      </trkpt>
      <trkpt lat="44.87774" lon="4.35831">
        <ele>636.888</ele>
        <time>2017-08-17T14:52:16Z</time>
      </trkpt>
      <trkpt lat="44.87783" lon="4.35841">
        <ele>635.766</ele>
        <time>2017-08-17T14:52:26Z</time>
      </trkpt>
      <trkpt lat="44.87788" lon="4.35847">
        <ele>634.592</ele>
        <time>2017-08-17T14:52:35Z</time>
      </trkpt>
      <trkpt lat="44.87792" lon="4.35851">
        <ele>634.431</ele>
        <time>2017-08-17T14:52:43Z</time>
      </trkpt>
      <trkpt lat="44.87796" lon="4.35855">
        <ele>634.087</ele>
        <time>2017-08-17T14:52:47Z</time>
      </trkpt>
      <trkpt lat="44.87799" lon="4.35869">
        <ele>633.167</ele>
        <time>2017-08-17T14:52:56Z</time>
      </trkpt>
      <trkpt lat="44.87803" lon="4.35876">
        <ele>632.662</ele>
        <time>2017-08-17T14:53:03Z</time>
      </trkpt>
      <trkpt lat="44.87806" lon="4.35885">
        <ele>631.232</ele>
        <time>2017-08-17T14:53:11Z</time>
      </trkpt>
      <trkpt lat="44.87812" lon="4.359">
        <ele>631.288</ele>
        <time>2017-08-17T14:53:22Z</time>
      </trkpt>
      <trkpt lat="44.87812" lon="4.35905">
        <ele>630.561</ele>
        <time>2017-08-17T14:53:31Z</time>
      </trkpt>
      <trkpt lat="44.87817" lon="4.35908">
        <ele>629.474</ele>
        <time>2017-08-17T14:53:39Z</time>
      </trkpt>
      <trkpt lat="44.87819" lon="4.35913">
        <ele>628.95</ele>
        <time>2017-08-17T14:53:44Z</time>
      </trkpt>
      <trkpt lat="44.87823" lon="4.35913">
        <ele>628.652</ele>
        <time>2017-08-17T14:53:48Z</time>
      </trkpt>
      <trkpt lat="44.87829" lon="4.35914">
        <ele>628.073</ele>
        <time>2017-08-17T14:53:54Z</time>
      </trkpt>
      <trkpt lat="44.87833" lon="4.35914">
        <ele>627.163</ele>
        <time>2017-08-17T14:54:01Z</time>
      </trkpt>
      <trkpt lat="44.87843" lon="4.35925">
        <ele>626.105</ele>
        <time>2017-08-17T14:54:09Z</time>
      </trkpt>
      <trkpt lat="44.87852" lon="4.35936">
        <ele>624.753</ele>
        <time>2017-08-17T14:54:20Z</time>
      </trkpt>
      <trkpt lat="44.8786" lon="4.35941">
        <ele>624.234</ele>
        <time>2017-08-17T14:54:29Z</time>
      </trkpt>
      <trkpt lat="44.87862" lon="4.35949">
        <ele>623.028</ele>
        <time>2017-08-17T14:54:38Z</time>
      </trkpt>
      <trkpt lat="44.87864" lon="4.35953">
        <ele>621.719</ele>
        <time>2017-08-17T14:54:46Z</time>
      </trkpt>
      <trkpt lat="44.87865" lon="4.35961">
        <ele>620.985</ele>
        <time>2017-08-17T14:54:59Z</time>
      </trkpt>
      <trkpt lat="44.87866" lon="4.3597">
        <ele>620.186</ele>
        <time>2017-08-17T14:55:09Z</time>
      </trkpt>
      <trkpt lat="44.87865" lon="4.35972">
        <ele>621.121</ele>
        <time>2017-08-17T14:55:45Z</time>
      </trkpt>
      <trkpt lat="44.87869" lon="4.35981">
        <ele>619.246</ele>
        <time>2017-08-17T14:55:53Z</time>
      </trkpt>
      <trkpt lat="44.87876" lon="4.35996">
        <ele>618.079</ele>
        <time>2017-08-17T14:56:03Z</time>
      </trkpt>
      <trkpt lat="44.87887" lon="4.36011">
        <ele>617.117</ele>
        <time>2017-08-17T14:56:14Z</time>
      </trkpt>
      <trkpt lat="44.87895" lon="4.36026">
        <ele>616.255</ele>
        <time>2017-08-17T14:56:27Z</time>
      </trkpt>
      <trkpt lat="44.879" lon="4.36032">
        <ele>615.476</ele>
        <time>2017-08-17T14:56:34Z</time>
      </trkpt>
      <trkpt lat="44.87904" lon="4.36035">
        <ele>614.264</ele>
        <time>2017-08-17T14:56:39Z</time>
      </trkpt>
      <trkpt lat="44.87918" lon="4.36059">
        <ele>612.855</ele>
        <time>2017-08-17T14:56:55Z</time>
      </trkpt>
      <trkpt lat="44.87928" lon="4.36078">
        <ele>611.815</ele>
        <time>2017-08-17T14:57:07Z</time>
      </trkpt>
      <trkpt lat="44.87933" lon="4.3609">
        <ele>610.247</ele>
        <time>2017-08-17T14:57:21Z</time>
      </trkpt>
      <trkpt lat="44.87937" lon="4.36102">
        <ele>608.979</ele>
        <time>2017-08-17T14:57:31Z</time>
      </trkpt>
      <trkpt lat="44.87944" lon="4.36122">
        <ele>608.222</ele>
        <time>2017-08-17T14:57:44Z</time>
      </trkpt>
      <trkpt lat="44.8795" lon="4.36136">
        <ele>607.864</ele>
        <time>2017-08-17T14:57:57Z</time>
      </trkpt>
      <trkpt lat="44.87955" lon="4.36153">
        <ele>606.734</ele>
        <time>2017-08-17T14:58:08Z</time>
      </trkpt>
      <trkpt lat="44.87961" lon="4.3616">
        <ele>606.375</ele>
        <time>2017-08-17T14:58:15Z</time>
      </trkpt>
      <trkpt lat="44.87964" lon="4.36161">
        <ele>606.377</ele>
        <time>2017-08-17T14:58:16Z</time>
      </trkpt>
      <trkpt lat="44.87967" lon="4.36167">
        <ele>605.909</ele>
        <time>2017-08-17T14:58:21Z</time>
      </trkpt>
      <trkpt lat="44.87967" lon="4.36179">
        <ele>605.462</ele>
        <time>2017-08-17T14:58:29Z</time>
      </trkpt>
      <trkpt lat="44.87968" lon="4.36183">
        <ele>604.564</ele>
        <time>2017-08-17T14:58:50Z</time>
      </trkpt>
      <trkpt lat="44.8797" lon="4.36186">
        <ele>604.076</ele>
        <time>2017-08-17T14:58:53Z</time>
      </trkpt>
      <trkpt lat="44.87975" lon="4.36195">
        <ele>603.629</ele>
        <time>2017-08-17T14:58:59Z</time>
      </trkpt>
      <trkpt lat="44.87977" lon="4.36206">
        <ele>602.281</ele>
        <time>2017-08-17T14:59:08Z</time>
      </trkpt>
      <trkpt lat="44.87981" lon="4.36216">
        <ele>602.305</ele>
        <time>2017-08-17T14:59:27Z</time>
      </trkpt>
      <trkpt lat="44.87987" lon="4.3623">
        <ele>601.052</ele>
        <time>2017-08-17T14:59:38Z</time>
      </trkpt>
      <trkpt lat="44.87989" lon="4.36233">
        <ele>600.66</ele>
        <time>2017-08-17T14:59:41Z</time>
      </trkpt>
      <trkpt lat="44.8799" lon="4.3625">
        <ele>599.503</ele>
        <time>2017-08-17T14:59:54Z</time>
      </trkpt>
      <trkpt lat="44.87989" lon="4.36263">
        <ele>597.66</ele>
        <time>2017-08-17T15:00:04Z</time>
      </trkpt>
      <trkpt lat="44.87992" lon="4.3627">
        <ele>597.167</ele>
        <time>2017-08-17T15:00:09Z</time>
      </trkpt>
      <trkpt lat="44.87989" lon="4.36274">
        <ele>596.586</ele>
        <time>2017-08-17T15:00:12Z</time>
      </trkpt>
      <trkpt lat="44.87995" lon="4.36285">
        <ele>595.919</ele>
        <time>2017-08-17T15:00:22Z</time>
      </trkpt>
      <trkpt lat="44.87998" lon="4.36294">
        <ele>593.888</ele>
        <time>2017-08-17T15:00:30Z</time>
      </trkpt>
      <trkpt lat="44.88" lon="4.363">
        <ele>593.416</ele>
        <time>2017-08-17T15:00:35Z</time>
      </trkpt>
      <trkpt lat="44.88006" lon="4.36314">
        <ele>590.981</ele>
        <time>2017-08-17T15:00:47Z</time>
      </trkpt>
      <trkpt lat="44.88006" lon="4.36322">
        <ele>588.817</ele>
        <time>2017-08-17T15:00:54Z</time>
      </trkpt>
      <trkpt lat="44.88009" lon="4.36332">
        <ele>587.631</ele>
        <time>2017-08-17T15:01:04Z</time>
      </trkpt>
      <trkpt lat="44.88008" lon="4.3633">
        <ele>587.406</ele>
        <time>2017-08-17T15:02:04Z</time>
      </trkpt>
      <trkpt lat="44.88013" lon="4.3634">
        <ele>585.882</ele>
        <time>2017-08-17T15:02:11Z</time>
      </trkpt>
      <trkpt lat="44.88014" lon="4.36344">
        <ele>585.48</ele>
        <time>2017-08-17T15:02:15Z</time>
      </trkpt>
      <trkpt lat="44.88017" lon="4.36356">
        <ele>583.383</ele>
        <time>2017-08-17T15:02:25Z</time>
      </trkpt>
      <trkpt lat="44.88016" lon="4.36367">
        <ele>581.638</ele>
        <time>2017-08-17T15:02:40Z</time>
      </trkpt>
      <trkpt lat="44.88008" lon="4.36385">
        <ele>579.039</ele>
        <time>2017-08-17T15:02:52Z</time>
      </trkpt>
      <trkpt lat="44.88007" lon="4.36388">
        <ele>577.915</ele>
        <time>2017-08-17T15:02:59Z</time>
      </trkpt>
      <trkpt lat="44.88013" lon="4.36385">
        <ele>576.387</ele>
        <time>2017-08-17T15:03:06Z</time>
      </trkpt>
      <trkpt lat="44.88021" lon="4.36383">
        <ele>573.715</ele>
        <time>2017-08-17T15:03:16Z</time>
      </trkpt>
      <trkpt lat="44.88023" lon="4.36382">
        <ele>572.862</ele>
        <time>2017-08-17T15:03:23Z</time>
      </trkpt>
      <trkpt lat="44.88027" lon="4.36383">
        <ele>572.463</ele>
        <time>2017-08-17T15:03:31Z</time>
      </trkpt>
      <trkpt lat="44.88035" lon="4.36388">
        <ele>569.807</ele>
        <time>2017-08-17T15:03:41Z</time>
      </trkpt>
      <trkpt lat="44.88038" lon="4.36389">
        <ele>568.931</ele>
        <time>2017-08-17T15:03:49Z</time>
      </trkpt>
      <trkpt lat="44.88042" lon="4.36402">
        <ele>566.753</ele>
        <time>2017-08-17T15:03:58Z</time>
      </trkpt>
      <trkpt lat="44.88045" lon="4.36415">
        <ele>565.012</ele>
        <time>2017-08-17T15:04:08Z</time>
      </trkpt>
      <trkpt lat="44.88046" lon="4.36426">
        <ele>563.496</ele>
        <time>2017-08-17T15:04:17Z</time>
      </trkpt>
      <trkpt lat="44.88047" lon="4.36432">
        <ele>562.396</ele>
        <time>2017-08-17T15:04:41Z</time>
      </trkpt>
      <trkpt lat="44.88048" lon="4.36437">
        <ele>561.957</ele>
        <time>2017-08-17T15:04:45Z</time>
      </trkpt>
      <trkpt lat="44.88047" lon="4.3645">
        <ele>560.983</ele>
        <time>2017-08-17T15:04:55Z</time>
      </trkpt>
      <trkpt lat="44.88048" lon="4.36454">
        <ele>560.769</ele>
        <time>2017-08-17T15:04:59Z</time>
      </trkpt>
      <trkpt lat="44.88048" lon="4.36457">
        <ele>560.647</ele>
        <time>2017-08-17T15:05:01Z</time>
      </trkpt>
      <trkpt lat="44.88043" lon="4.3647">
        <ele>559.464</ele>
        <time>2017-08-17T15:05:10Z</time>
      </trkpt>
      <trkpt lat="44.88042" lon="4.36474">
        <ele>559.829</ele>
        <time>2017-08-17T15:05:13Z</time>
      </trkpt>
      <trkpt lat="44.88043" lon="4.36483">
        <ele>559.665</ele>
        <time>2017-08-17T15:05:20Z</time>
      </trkpt>
      <trkpt lat="44.88045" lon="4.36493">
        <ele>560.501</ele>
        <time>2017-08-17T15:05:47Z</time>
      </trkpt>
      <trkpt lat="44.88053" lon="4.3649">
        <ele>560.33</ele>
        <time>2017-08-17T15:05:54Z</time>
      </trkpt>
      <trkpt lat="44.88064" lon="4.36488">
        <ele>559.838</ele>
        <time>2017-08-17T15:06:04Z</time>
      </trkpt>
      <trkpt lat="44.88067" lon="4.36487">
        <ele>559.756</ele>
        <time>2017-08-17T15:06:06Z</time>
      </trkpt>
    </trkseg>
  </trk>
</gpx>